createdAt,value
2018-11-29T00:00:47.055Z,40.80
2018-11-29T00:03:16.586Z,40.70
2018-11-29T00:10:44.412Z,40.50
2018-11-29T00:13:13.982Z,40.70
2018-11-29T00:23:10.878Z,40.60
2018-11-29T00:25:40.419Z,40.60
2018-11-29T00:30:39.054Z,40.70
2018-11-29T00:35:37.706Z,40.80
2018-11-29T00:40:36.421Z,40.70
2018-11-29T00:43:05.983Z,40.70
2018-11-29T00:45:35.574Z,40.60
2018-11-29T00:50:35.147Z,40.60
2018-11-29T00:53:04.756Z,40.60
2018-11-29T00:55:34.345Z,40.60
2018-11-29T00:58:03.892Z,40.70
2018-11-29T01:05:32.310Z,40.70
2018-11-29T01:10:30.954Z,40.60
2018-11-29T01:20:28.603Z,40.70
2018-11-29T01:30:25.488Z,40.70
2018-11-29T01:32:55.046Z,40.70
2018-11-29T01:40:23.440Z,40.80
2018-11-29T01:42:55.327Z,40.80
2018-11-29T02:00:20.323Z,40.90
2018-11-29T02:02:52.182Z,40.90
2018-11-29T02:07:50.849Z,40.80
2018-11-29T02:17:54.394Z,40.80
2018-11-29T02:27:51.517Z,40.80
2018-11-29T02:30:22.035Z,41.00
2018-11-29T02:37:50.090Z,40.90
2018-11-29T02:40:20.472Z,40.90
2018-11-29T02:45:22.896Z,41.00
2018-11-29T02:50:21.547Z,41.00
2018-11-29T02:52:51.087Z,41.00
2018-11-29T02:55:20.643Z,41.00
2018-11-29T02:57:50.568Z,41.00
2018-11-29T03:05:18.493Z,41.00
2018-11-29T03:22:48.208Z,41.00
2018-11-29T03:25:17.796Z,41.00
2018-11-29T03:27:47.348Z,41.00
2018-11-29T03:35:18.087Z,41.10
2018-11-29T03:37:47.623Z,41.00
2018-11-29T03:45:16.879Z,41.00
2018-11-29T03:47:46.483Z,41.00
2018-11-29T03:50:16.985Z,41.00
2018-11-29T03:55:16.006Z,41.00
2018-11-29T03:57:45.571Z,41.00
2018-11-29T04:02:46.542Z,41.00
2018-11-29T04:07:45.242Z,41.00
2018-11-29T04:10:16.397Z,41.10
2018-11-29T04:15:15.538Z,41.00
2018-11-29T04:17:45.184Z,41.00
2018-11-29T04:20:15.956Z,41.00
2018-11-29T04:25:15.543Z,40.80
2018-11-29T04:27:45.091Z,40.80
2018-11-29T04:35:13.692Z,40.60
2018-11-29T04:37:43.252Z,40.50
2018-11-29T04:45:12.932Z,40.40
2018-11-29T04:47:42.521Z,40.20
2018-11-29T04:57:39.606Z,40.10
2018-11-29T05:00:15.251Z,40.00
2018-11-29T05:05:14.146Z,40.00
2018-11-29T05:10:16.366Z,40.00
2018-11-29T05:22:42.999Z,40.00
2018-11-29T05:35:10.940Z,40.10
2018-11-29T05:40:11.076Z,40.10
2018-11-29T05:45:10.607Z,40.20
2018-11-29T05:47:40.190Z,40.20
2018-11-29T05:52:40.335Z,40.30
2018-11-29T05:55:11.804Z,40.30
2018-11-29T06:00:13.487Z,40.30
2018-11-29T06:05:14.223Z,40.30
2018-11-29T06:10:12.872Z,40.30
2018-11-29T06:12:42.448Z,40.30
2018-11-29T06:17:41.254Z,40.40
2018-11-29T06:20:15.227Z,40.40
2018-11-29T06:22:44.835Z,40.30
2018-11-29T06:30:14.899Z,40.40
2018-11-29T06:35:13.654Z,40.30
2018-11-29T06:37:43.207Z,40.30
2018-11-29T06:45:19.679Z,40.40
2018-11-29T06:52:49.649Z,40.50
2018-11-29T07:20:31.253Z,40.80
2018-11-29T07:23:00.807Z,40.70
2018-11-29T07:32:57.744Z,41.00
2018-11-29T07:47:53.353Z,41.40
2018-11-29T08:00:20.709Z,41.70
2018-11-29T08:15:18.410Z,42.00
2018-11-29T08:22:47.731Z,42.40
2018-11-29T08:25:17.594Z,43.20
2018-11-29T08:32:45.672Z,43.10
2018-11-29T08:42:46.197Z,42.30
2018-11-29T08:45:16.147Z,42.10
2018-11-29T08:50:15.686Z,41.80
2018-11-29T08:52:46.191Z,41.70
2018-11-29T08:57:47.596Z,41.80
2018-11-29T09:07:46.348Z,43.90
2018-11-29T09:10:22.044Z,43.90
2018-11-29T09:42:48.986Z,42.90
2018-11-29T09:55:17.150Z,42.30
2018-11-29T10:02:58.863Z,42.40
2018-11-29T10:07:58.064Z,42.30
2018-11-29T10:10:27.620Z,42.30
2018-11-29T10:12:57.189Z,42.30
2018-11-29T10:15:26.770Z,42.40
2018-11-29T10:17:56.365Z,42.30
2018-11-29T10:22:55.023Z,42.40
2018-11-29T10:27:59.869Z,42.40
2018-11-29T10:30:35.298Z,42.40
2018-11-29T10:35:34.445Z,42.40
2018-11-29T10:38:04.016Z,42.40
2018-11-29T10:40:33.581Z,42.40
2018-11-29T10:45:32.254Z,39.80
2018-11-29T10:50:30.940Z,44.10
2018-11-29T10:53:00.511Z,44.10
2018-11-29T10:55:30.258Z,42.90
2018-11-29T11:03:11.250Z,41.80
2018-11-29T11:08:10.186Z,42.10
2018-11-29T11:10:40.406Z,42.20
2018-11-29T11:13:09.992Z,42.10
2018-11-29T11:20:39.067Z,42.20
2018-11-29T11:33:07.382Z,42.60
2018-11-29T11:40:36.522Z,42.60
2018-11-29T11:45:35.762Z,42.60
2018-11-29T11:55:34.559Z,42.70
2018-11-29T12:08:06.674Z,42.90
2018-11-29T12:10:37.842Z,42.90
2018-11-29T12:13:08.038Z,42.90
2018-11-29T12:15:38.182Z,43.00
2018-11-29T12:18:09.925Z,43.00
2018-11-29T12:25:38.063Z,43.00
2018-11-29T12:28:07.647Z,42.90
2018-11-29T12:48:03.703Z,42.70
2018-11-29T12:53:03.821Z,42.60
2018-11-29T12:55:33.391Z,42.60
2018-11-29T13:03:01.228Z,42.60
2018-11-29T13:10:32.603Z,42.50
2018-11-29T13:13:02.238Z,42.50
2018-11-29T13:23:01.131Z,42.40
2018-11-29T13:30:29.022Z,42.40
2018-11-29T13:35:35.766Z,42.40
2018-11-29T13:40:38.252Z,42.60
2018-11-29T13:43:07.856Z,42.70
2018-11-29T13:50:37.416Z,43.20
2018-11-29T13:53:06.958Z,43.20
2018-11-29T13:58:06.210Z,43.30
2018-11-29T14:03:11.012Z,46.80
2018-11-29T14:20:37.762Z,46.60
2018-11-29T14:35:35.350Z,45.10
2018-11-29T14:40:36.626Z,44.90
2018-11-29T14:48:04.971Z,44.80
2018-11-29T14:58:07.276Z,44.90
2018-11-29T15:03:08.335Z,44.80
2018-11-29T15:10:37.439Z,44.70
2018-11-29T15:18:07.820Z,44.60
2018-11-29T15:23:08.873Z,44.60
2018-11-29T15:28:08.060Z,44.50
2018-11-29T15:30:38.426Z,44.50
2018-11-29T15:33:07.990Z,44.50
2018-11-29T15:35:37.514Z,44.50
2018-11-29T15:40:36.378Z,44.40
2018-11-29T15:43:06.224Z,44.30
2018-11-29T15:50:34.191Z,44.30
2018-11-29T15:55:33.192Z,44.20
2018-11-29T15:58:02.724Z,44.20
2018-11-29T16:03:05.333Z,44.20
2018-11-29T16:08:04.015Z,44.80
2018-11-29T16:10:33.605Z,45.00
2018-11-29T16:15:32.285Z,44.80
2018-11-29T16:18:01.790Z,45.00
2018-11-29T16:28:00.474Z,44.60
2018-11-29T16:33:06.489Z,44.60
2018-11-29T16:50:31.687Z,44.20
2018-11-29T17:05:29.257Z,43.90
2018-11-29T17:07:58.824Z,43.80
2018-11-29T17:20:26.343Z,43.50
2018-11-29T17:22:55.914Z,43.60
2018-11-29T17:27:54.548Z,43.60
2018-11-29T17:30:25.337Z,43.50
2018-11-29T17:35:24.592Z,43.90
2018-11-29T17:47:54.395Z,43.20
2018-11-29T17:50:27.395Z,43.10
2018-11-29T17:55:26.173Z,43.30
2018-11-29T18:05:24.083Z,43.40
2018-11-29T18:20:24.597Z,43.70
2018-11-29T18:27:52.701Z,43.90
2018-11-29T18:37:50.647Z,44.00
2018-11-29T18:40:21.222Z,44.10
2018-11-29T18:47:51.751Z,44.10
2018-11-29T18:52:51.297Z,44.20
2018-11-29T18:55:22.529Z,44.20
2018-11-29T18:57:52.751Z,44.30
2018-11-29T19:00:25.322Z,44.40
2018-11-29T19:05:24.031Z,44.50
2018-11-29T19:07:53.574Z,44.60
2018-11-29T19:12:55.174Z,44.80
2018-11-29T19:17:53.840Z,44.90
2018-11-29T19:20:23.386Z,44.80
2018-11-29T19:25:53.286Z,44.90
2018-11-29T19:28:22.846Z,44.80
2018-11-29T19:30:52.423Z,44.80
2018-11-29T19:35:53.630Z,44.80
2018-11-29T19:40:53.489Z,44.60
2018-11-29T19:43:23.043Z,44.60
2018-11-29T19:50:51.252Z,44.70
2018-11-29T20:00:50.364Z,44.60
2018-11-29T20:03:19.942Z,44.60
2018-11-29T20:25:46.105Z,44.60
2018-11-29T20:33:14.203Z,44.60
2018-11-29T20:35:43.784Z,44.70
2018-11-29T20:40:44.315Z,44.70
2018-11-29T20:43:14.550Z,44.80
2018-11-29T20:48:24.847Z,44.80
2018-11-29T20:55:59.457Z,44.80
2018-11-29T20:58:29.006Z,44.90
2018-11-29T21:03:28.004Z,44.90
2018-11-29T21:10:55.769Z,45.10
2018-11-29T21:15:54.445Z,45.10
2018-11-29T21:23:22.365Z,45.20
2018-11-29T21:28:21.127Z,45.20
2018-11-29T21:30:50.675Z,45.20
2018-11-29T21:35:49.347Z,45.10
2018-11-29T21:38:20.092Z,45.10
2018-11-29T21:40:52.296Z,45.10
2018-11-29T21:43:21.845Z,45.20
2018-11-29T21:45:51.413Z,45.20
2018-11-29T21:55:48.841Z,45.20
2018-11-29T21:58:18.397Z,45.20
2018-11-29T22:05:46.981Z,45.20
2018-11-29T22:10:45.628Z,45.20
2018-11-29T22:13:15.979Z,45.30
2018-11-29T22:15:45.549Z,45.30
2018-11-29T22:18:20.873Z,45.30
2018-11-29T22:20:53.835Z,45.40
2018-11-29T22:28:22.003Z,45.60
2018-11-29T22:33:20.717Z,45.70
2018-11-29T22:35:51.183Z,45.80
2018-11-29T22:40:50.340Z,45.80
2018-11-29T22:55:45.980Z,46.40
2018-11-29T22:58:15.549Z,46.40
2018-11-29T23:00:51.618Z,46.40
2018-11-29T23:03:21.808Z,46.50
2018-11-29T23:08:20.431Z,46.50
2018-11-29T23:10:50.021Z,46.50
2018-11-29T23:20:46.910Z,46.80
2018-11-29T23:23:16.464Z,46.80
2018-11-29T23:28:15.130Z,46.90
2018-11-29T23:30:44.668Z,47.00
2018-11-29T23:33:14.232Z,47.00
2018-11-29T23:35:43.803Z,47.00
2018-11-29T23:38:13.361Z,47.00
2018-11-29T23:55:41.060Z,47.00
2018-11-29T23:58:10.608Z,47.00
